createdAt,value
2023-09-12T00:02:17.082Z,23.92
2023-09-12T00:04:44.238Z,23.93
2023-09-12T00:07:11.351Z,23.89
2023-09-12T00:09:38.367Z,23.91
2023-09-12T00:12:06.054Z,23.90
2023-09-12T00:14:33.138Z,23.85
2023-09-12T00:17:00.171Z,23.84
2023-09-12T00:19:27.151Z,23.84
2023-09-12T00:21:54.289Z,23.78
2023-09-12T00:24:21.467Z,23.74
2023-09-12T00:26:48.502Z,23.70
2023-09-12T00:29:15.600Z,23.67
2023-09-12T00:31:42.620Z,23.63
2023-09-12T00:34:10.100Z,23.59
2023-09-12T00:36:39.135Z,23.54
2023-09-12T00:39:06.347Z,23.53
2023-09-12T00:41:33.489Z,23.53
2023-09-12T00:44:00.741Z,23.48
2023-09-12T00:46:29.475Z,23.43
2023-09-12T00:49:00.518Z,23.42
2023-09-12T00:51:28.647Z,23.37
2023-09-12T00:53:56.678Z,23.35
2023-09-12T00:56:23.684Z,23.34
2023-09-12T00:58:52.594Z,23.34
2023-09-12T01:01:23.680Z,23.32
2023-09-12T01:03:51.174Z,23.32
2023-09-12T01:06:22.749Z,23.32
2023-09-12T01:08:49.906Z,23.34
2023-09-12T01:11:18.590Z,23.33
2023-09-12T01:13:45.632Z,23.33
2023-09-12T01:16:12.648Z,23.35
2023-09-12T01:18:39.917Z,23.35
2023-09-12T01:21:48.774Z,23.36
2023-09-12T01:24:46.256Z,23.32
2023-09-12T01:27:44.048Z,23.32
2023-09-12T01:30:12.685Z,23.31
2023-09-12T01:32:41.167Z,23.32
2023-09-12T01:35:09.378Z,23.33
2023-09-12T01:37:36.392Z,23.30
2023-09-12T01:40:04.740Z,23.30
2023-09-12T01:42:46.062Z,23.32
2023-09-12T01:45:21.198Z,23.30
2023-09-12T01:47:51.549Z,23.30
2023-09-12T01:50:20.183Z,23.28
2023-09-12T01:52:48.166Z,23.26
2023-09-12T01:55:16.636Z,23.25
2023-09-12T01:57:43.985Z,23.25
2023-09-12T02:00:12.575Z,23.22
2023-09-12T02:02:39.643Z,23.24
2023-09-12T02:05:20.940Z,23.21
2023-09-12T02:07:48.580Z,23.18
2023-09-12T02:10:16.285Z,23.16
2023-09-12T02:12:43.386Z,23.18
2023-09-12T02:15:10.883Z,23.16
2023-09-12T02:17:39.896Z,23.18
2023-09-12T02:20:09.410Z,23.17
2023-09-12T02:22:37.009Z,23.14
2023-09-12T02:25:07.883Z,23.11
2023-09-12T02:27:35.167Z,23.08
2023-09-12T02:30:02.333Z,23.01
2023-09-12T02:32:30.985Z,23.02
2023-09-12T02:34:58.260Z,22.98
2023-09-12T02:37:25.601Z,22.96
2023-09-12T02:39:52.689Z,22.99
2023-09-12T02:42:20.006Z,22.97
2023-09-12T02:44:47.133Z,22.94
2023-09-12T02:47:14.149Z,22.95
2023-09-12T02:49:41.110Z,22.90
2023-09-12T02:52:08.078Z,22.85
2023-09-12T02:54:35.259Z,22.82
2023-09-12T02:57:02.377Z,22.81
2023-09-12T02:59:30.781Z,22.81
2023-09-12T03:01:57.905Z,22.79
2023-09-12T03:04:29.352Z,22.80
2023-09-12T03:06:56.602Z,22.76
2023-09-12T03:09:25.174Z,22.76
2023-09-12T03:11:52.340Z,22.74
2023-09-12T03:14:19.604Z,22.72
2023-09-12T03:16:46.780Z,22.72
2023-09-12T03:19:13.868Z,22.71
2023-09-12T03:21:41.048Z,22.72
2023-09-12T03:24:08.343Z,22.69
2023-09-12T03:26:37.130Z,22.68
2023-09-12T03:29:05.547Z,22.65
2023-09-12T03:31:33.316Z,22.58
2023-09-12T03:34:00.536Z,22.56
2023-09-12T03:36:27.714Z,22.54
2023-09-12T03:38:54.971Z,22.53
2023-09-12T03:41:26.114Z,22.52
2023-09-12T03:43:55.639Z,22.46
2023-09-12T03:46:23.357Z,22.42
2023-09-12T03:48:50.737Z,22.39
2023-09-12T03:51:17.931Z,22.40
2023-09-12T03:53:45.053Z,22.36
2023-09-12T03:56:13.670Z,22.33
2023-09-12T03:58:41.364Z,22.23
2023-09-12T04:01:08.877Z,22.20
2023-09-12T04:03:36.029Z,22.15
2023-09-12T04:06:03.255Z,22.10
2023-09-12T04:08:30.281Z,22.02
2023-09-12T04:10:57.288Z,22.00
2023-09-12T04:13:24.289Z,21.98
2023-09-12T04:15:51.451Z,21.94
2023-09-12T04:18:18.762Z,21.91
2023-09-12T04:20:45.826Z,21.88
2023-09-12T04:23:12.869Z,21.88
2023-09-12T04:25:44.577Z,21.89
2023-09-12T04:28:11.807Z,21.88
2023-09-12T04:30:40.899Z,21.89
2023-09-12T04:33:08.093Z,21.91
2023-09-12T04:35:36.136Z,21.90
2023-09-12T04:38:04.097Z,21.92
2023-09-12T04:40:31.288Z,21.96
2023-09-12T04:42:58.739Z,21.97
2023-09-12T04:45:25.908Z,22.01
2023-09-12T04:47:53.016Z,22.04
2023-09-12T04:50:20.069Z,22.07
2023-09-12T04:52:47.268Z,22.11
2023-09-12T04:55:14.267Z,22.09
2023-09-12T04:57:42.704Z,22.10
2023-09-12T05:00:12.046Z,22.15
2023-09-12T05:02:39.392Z,22.20
2023-09-12T05:05:07.023Z,22.27
2023-09-12T05:07:34.800Z,22.31
2023-09-12T05:10:01.989Z,22.32
2023-09-12T05:12:29.202Z,22.33
2023-09-12T05:14:56.311Z,22.33
2023-09-12T05:17:23.343Z,22.34
2023-09-12T05:19:50.469Z,22.37
2023-09-12T05:22:17.459Z,22.37
2023-09-12T05:24:44.553Z,22.34
2023-09-12T05:27:11.986Z,22.30
2023-09-12T05:29:39.290Z,22.25
2023-09-12T05:32:06.805Z,22.18
2023-09-12T05:34:34.697Z,22.09
2023-09-12T05:37:01.728Z,22.03
2023-09-12T05:39:28.898Z,21.96
2023-09-12T05:41:56.003Z,21.87
2023-09-12T05:44:23.349Z,21.77
2023-09-12T05:46:50.417Z,21.73
2023-09-12T05:49:17.539Z,21.70
2023-09-12T05:51:44.982Z,21.71
2023-09-12T05:54:14.747Z,21.70
2023-09-12T05:56:42.140Z,21.70
2023-09-12T05:59:09.485Z,21.71
2023-09-12T06:01:36.764Z,21.66
2023-09-12T06:04:04.238Z,21.64
2023-09-12T06:06:31.405Z,21.61
2023-09-12T06:08:59.208Z,21.60
2023-09-12T06:11:26.250Z,21.52
2023-09-12T06:13:53.261Z,21.44
2023-09-12T06:16:20.256Z,21.37
2023-09-12T06:18:49.459Z,21.32
2023-09-12T06:21:16.670Z,21.27
2023-09-12T06:23:43.785Z,21.23
2023-09-12T06:26:10.731Z,21.17
2023-09-12T06:28:37.728Z,21.12
2023-09-12T06:31:05.112Z,21.08
2023-09-12T06:33:32.140Z,21.00
2023-09-12T06:35:59.105Z,21.00
2023-09-12T06:38:26.086Z,20.93
2023-09-12T06:40:53.215Z,20.89
2023-09-12T06:43:20.315Z,20.92
2023-09-12T06:45:47.481Z,20.94
2023-09-12T06:48:14.760Z,20.97
2023-09-12T06:50:42.414Z,21.05
2023-09-12T06:53:11.189Z,21.10
2023-09-12T06:55:38.546Z,21.10
2023-09-12T06:58:05.744Z,21.16
2023-09-12T07:00:32.971Z,21.20
2023-09-12T07:03:00.281Z,21.23
2023-09-12T07:05:27.367Z,21.29
2023-09-12T07:07:54.423Z,21.37
2023-09-12T07:10:25.206Z,21.46
2023-09-12T07:12:54.760Z,21.59
2023-09-12T07:15:21.936Z,21.69
2023-09-12T07:17:49.117Z,21.82
2023-09-12T07:20:17.113Z,21.96
2023-09-12T07:22:44.720Z,22.08
2023-09-12T07:25:13.070Z,22.20
2023-09-12T07:27:40.824Z,22.31
2023-09-12T07:30:09.139Z,22.44
2023-09-12T07:32:36.162Z,22.52
2023-09-12T07:35:03.572Z,22.63
2023-09-12T07:37:30.884Z,22.68
2023-09-12T07:39:57.880Z,22.77
2023-09-12T07:42:25.359Z,22.85
2023-09-12T07:44:52.654Z,22.95
2023-09-12T07:47:20.462Z,23.00
2023-09-12T07:49:54.632Z,23.02
2023-09-12T07:52:22.406Z,23.09
2023-09-12T07:54:53.754Z,23.17
2023-09-12T07:57:20.808Z,23.24
2023-09-12T07:59:48.014Z,23.33
2023-09-12T08:02:15.154Z,23.38
2023-09-12T08:04:42.264Z,23.48
2023-09-12T08:07:09.350Z,23.55
2023-09-12T08:09:59.147Z,23.64
2023-09-12T08:12:28.855Z,23.73
2023-09-12T08:14:56.482Z,23.83
2023-09-12T08:17:24.073Z,23.91
2023-09-12T08:19:51.095Z,24.00
2023-09-12T08:22:18.458Z,24.07
2023-09-12T08:24:45.599Z,24.16
2023-09-12T08:27:12.695Z,24.26
2023-09-12T08:29:40.157Z,24.32
2023-09-12T08:32:07.292Z,24.38
2023-09-12T08:34:34.374Z,24.45
2023-09-12T08:37:01.364Z,24.53
2023-09-12T08:39:29.160Z,24.61
2023-09-12T08:41:56.282Z,24.70
2023-09-12T08:44:23.702Z,24.78
2023-09-12T08:46:50.849Z,24.87
2023-09-12T08:49:18.129Z,24.93
2023-09-12T08:51:47.043Z,24.99
2023-09-12T08:54:14.464Z,25.07
2023-09-12T08:56:44.061Z,25.11
2023-09-12T08:59:11.834Z,25.18
2023-09-12T09:01:40.749Z,25.26
2023-09-12T09:04:08.349Z,25.40
2023-09-12T09:06:38.554Z,25.46
2023-09-12T09:09:07.602Z,25.54
2023-09-12T09:11:35.587Z,25.63
2023-09-12T09:14:05.832Z,25.69
2023-09-12T09:16:33.220Z,25.76
2023-09-12T09:19:16.844Z,25.84
2023-09-12T09:21:44.016Z,25.91
2023-09-12T09:24:18.314Z,25.98
2023-09-12T09:26:45.860Z,26.06
2023-09-12T09:29:17.607Z,26.15
2023-09-12T09:31:48.228Z,26.23
2023-09-12T09:34:18.127Z,26.31
2023-09-12T09:36:50.925Z,26.40
2023-09-12T09:39:20.232Z,26.41
2023-09-12T09:41:56.196Z,26.48
2023-09-12T09:44:28.584Z,26.56
2023-09-12T09:47:03.542Z,26.62
2023-09-12T09:49:35.058Z,26.70
2023-09-12T09:52:05.990Z,26.75
2023-09-12T09:54:33.129Z,26.81
2023-09-12T09:57:00.285Z,26.85
2023-09-12T09:59:29.378Z,26.89
2023-09-12T10:02:00.894Z,26.96
2023-09-12T10:04:45.608Z,27.02
2023-09-12T10:07:13.505Z,27.09
2023-09-12T10:09:42.055Z,27.13
2023-09-12T10:12:10.560Z,27.15
2023-09-12T10:14:40.462Z,27.17
2023-09-12T10:17:08.323Z,27.09
2023-09-12T10:20:00.796Z,27.13
2023-09-12T10:22:47.022Z,27.17
2023-09-12T10:25:14.433Z,27.18
2023-09-12T10:27:41.630Z,27.23
2023-09-12T10:30:10.388Z,27.20
2023-09-12T10:32:39.186Z,27.23
2023-09-12T10:35:09.058Z,27.22
2023-09-12T10:37:38.789Z,27.28
2023-09-12T10:40:09.051Z,27.36
2023-09-12T10:42:36.526Z,27.45
2023-09-12T10:45:08.121Z,27.57
2023-09-12T10:47:37.561Z,27.68
2023-09-12T10:50:04.906Z,27.74
2023-09-12T10:52:33.162Z,27.78
2023-09-12T10:55:00.259Z,27.82
2023-09-12T10:57:29.049Z,27.86
2023-09-12T11:00:11.610Z,27.89
2023-09-12T11:02:43.544Z,27.94
2023-09-12T11:05:28.955Z,28.06
2023-09-12T11:08:01.250Z,28.19
2023-09-12T11:10:29.902Z,28.28
2023-09-12T11:13:01.146Z,28.36
2023-09-12T11:15:32.626Z,28.48
2023-09-12T11:18:07.017Z,28.64
2023-09-12T11:21:04.353Z,28.78
2023-09-12T11:23:32.724Z,28.87
2023-09-12T11:26:12.168Z,28.99
2023-09-12T11:28:40.564Z,29.12
2023-09-12T11:31:07.995Z,29.20
2023-09-12T11:33:35.505Z,29.25
2023-09-12T11:36:04.659Z,29.30
2023-09-12T11:38:32.614Z,29.36
2023-09-12T11:41:00.653Z,29.40
2023-09-12T11:43:29.348Z,29.47
2023-09-12T11:45:58.340Z,29.53
2023-09-12T11:48:25.726Z,29.60
2023-09-12T11:50:57.733Z,29.71
2023-09-12T11:53:27.911Z,29.79
2023-09-12T11:56:00.567Z,29.89
2023-09-12T11:58:28.626Z,29.95
2023-09-12T12:01:00.221Z,30.02
2023-09-12T12:03:29.574Z,30.09
2023-09-12T12:05:57.990Z,29.98
2023-09-12T12:08:31.785Z,30.02
2023-09-12T12:11:00.526Z,30.13
2023-09-12T12:13:29.197Z,30.20
2023-09-12T12:15:58.120Z,30.29
2023-09-12T12:18:25.948Z,30.37
2023-09-12T12:20:53.310Z,30.43
2023-09-12T12:23:20.362Z,30.45
2023-09-12T12:25:47.497Z,30.46
2023-09-12T12:28:17.118Z,30.58
2023-09-12T12:30:44.222Z,30.70
2023-09-12T12:33:39.976Z,30.81
2023-09-12T12:36:06.714Z,30.96
2023-09-12T12:38:47.419Z,31.07
2023-09-12T12:41:42.704Z,31.15
2023-09-12T12:44:17.045Z,31.23
2023-09-12T12:46:54.265Z,31.27
2023-09-12T12:49:23.951Z,31.17
2023-09-12T12:51:50.948Z,31.24
2023-09-12T12:54:18.008Z,31.30
2023-09-12T12:56:46.677Z,31.31
2023-09-12T12:59:13.754Z,31.40
2023-09-12T13:01:40.841Z,31.51
2023-09-12T13:04:11.596Z,31.58
2023-09-12T13:06:39.151Z,31.67
2023-09-12T13:09:07.419Z,31.73
2023-09-12T13:11:37.858Z,31.77
2023-09-12T13:14:10.637Z,31.82
2023-09-12T13:16:40.477Z,31.94
2023-09-12T13:19:07.843Z,32.05
2023-09-12T13:21:35.002Z,32.05
2023-09-12T13:24:03.004Z,32.04
2023-09-12T13:26:30.555Z,32.06
2023-09-12T13:28:58.397Z,31.83
2023-09-12T13:31:26.078Z,31.87
2023-09-12T13:33:53.325Z,31.96
2023-09-12T13:36:20.401Z,32.08
2023-09-12T13:38:49.466Z,32.15
2023-09-12T13:41:16.459Z,32.19
2023-09-12T13:43:46.413Z,32.19
2023-09-12T13:46:14.322Z,32.19
2023-09-12T13:48:41.713Z,32.24
2023-09-12T13:51:08.923Z,32.27
2023-09-12T13:53:35.931Z,32.33
2023-09-12T13:56:50.497Z,32.40
2023-09-12T13:58:50.346Z,32.47
2023-09-12T14:01:30.029Z,32.46
2023-09-12T14:04:00.877Z,32.44
2023-09-12T14:06:28.307Z,32.42
2023-09-12T14:08:56.162Z,32.47
2023-09-12T14:11:31.108Z,32.45
2023-09-12T14:14:12.357Z,32.49
2023-09-12T14:16:47.412Z,32.50
2023-09-12T14:19:16.195Z,32.51
2023-09-12T14:21:46.329Z,32.57
2023-09-12T14:24:13.948Z,32.63
2023-09-12T14:26:42.054Z,32.67
2023-09-12T14:29:09.734Z,32.68
2023-09-12T14:31:38.293Z,32.67
2023-09-12T14:34:07.284Z,32.66
2023-09-12T14:36:34.406Z,32.67
2023-09-12T14:39:01.557Z,32.66
2023-09-12T14:41:28.634Z,32.67
2023-09-12T14:43:55.680Z,32.65
2023-09-12T14:46:22.765Z,32.63
2023-09-12T14:48:58.922Z,32.50
2023-09-12T14:51:32.338Z,32.35
2023-09-12T14:54:02.356Z,32.16
2023-09-12T14:56:29.545Z,32.06
2023-09-12T14:58:56.790Z,32.02
2023-09-12T15:01:25.897Z,31.94
2023-09-12T15:03:53.871Z,32.01
2023-09-12T15:06:22.500Z,32.06
2023-09-12T15:08:51.235Z,32.05
2023-09-12T15:11:18.269Z,32.09
2023-09-12T15:13:47.213Z,32.04
2023-09-12T15:16:14.925Z,31.92
2023-09-12T15:18:43.080Z,31.85
2023-09-12T15:21:10.233Z,31.84
2023-09-12T15:23:37.217Z,31.74
2023-09-12T15:26:04.232Z,31.65
2023-09-12T15:28:31.282Z,31.71
2023-09-12T15:31:01.268Z,31.70
2023-09-12T15:33:28.396Z,31.65
2023-09-12T15:35:55.445Z,31.62
2023-09-12T15:38:22.537Z,31.61
2023-09-12T15:40:49.524Z,31.60
2023-09-12T15:43:24.711Z,31.53
2023-09-12T15:45:54.950Z,31.54
2023-09-12T15:48:22.087Z,31.49
2023-09-12T15:50:49.191Z,31.42
2023-09-12T15:53:16.584Z,31.43
2023-09-12T15:55:44.540Z,31.35
2023-09-12T15:58:11.564Z,31.33
2023-09-12T16:00:38.733Z,31.31
2023-09-12T16:03:06.207Z,31.26
2023-09-12T16:05:33.241Z,31.20
2023-09-12T16:08:00.275Z,31.17
2023-09-12T16:10:27.509Z,31.16
2023-09-12T16:12:54.627Z,31.11
2023-09-12T16:15:21.735Z,31.04
2023-09-12T16:17:48.770Z,30.99
2023-09-12T16:20:16.061Z,30.92
2023-09-12T16:22:43.731Z,30.88
2023-09-12T16:25:11.011Z,30.83
2023-09-12T16:27:38.190Z,30.79
2023-09-12T16:30:09.772Z,30.76
2023-09-12T16:32:39.732Z,30.70
2023-09-12T16:35:07.642Z,30.64
2023-09-12T16:37:35.153Z,30.60
2023-09-12T16:40:02.576Z,30.55
2023-09-12T16:42:31.731Z,30.49
2023-09-12T16:45:04.048Z,30.46
2023-09-12T16:47:32.340Z,30.38
2023-09-12T16:49:59.479Z,30.33
2023-09-12T16:52:26.883Z,30.23
2023-09-12T16:54:54.034Z,30.13
2023-09-12T16:57:21.132Z,30.09
2023-09-12T16:59:49.183Z,29.97
2023-09-12T17:02:16.261Z,29.85
2023-09-12T17:04:44.504Z,29.67
2023-09-12T17:07:13.965Z,29.63
2023-09-12T17:09:41.730Z,29.57
2023-09-12T17:12:09.345Z,29.56
2023-09-12T17:14:36.312Z,29.49
2023-09-12T17:17:03.583Z,29.43
2023-09-12T17:19:31.466Z,29.26
2023-09-12T17:21:58.552Z,29.10
2023-09-12T17:24:26.339Z,29.02
2023-09-12T17:26:55.055Z,28.96
2023-09-12T17:29:23.818Z,28.85
2023-09-12T17:31:50.860Z,28.73
2023-09-12T17:34:19.006Z,28.62
2023-09-12T17:36:46.328Z,28.55
2023-09-12T17:39:13.325Z,28.45
2023-09-12T17:41:40.880Z,28.40
2023-09-12T17:44:07.893Z,28.37
2023-09-12T17:46:35.568Z,28.32
2023-09-12T17:49:02.749Z,28.29
2023-09-12T17:51:31.873Z,28.27
2023-09-12T17:53:58.884Z,28.23
2023-09-12T17:56:25.930Z,28.20
2023-09-12T17:58:52.948Z,28.20
2023-09-12T18:01:20.032Z,28.23
2023-09-12T18:03:48.060Z,28.21
2023-09-12T18:06:16.229Z,28.03
2023-09-12T18:08:43.769Z,27.89
2023-09-12T18:11:10.735Z,27.75
2023-09-12T18:13:37.797Z,27.63
2023-09-12T18:16:05.296Z,27.57
2023-09-12T18:18:32.665Z,27.52
2023-09-12T18:20:59.772Z,27.49
2023-09-12T18:23:26.765Z,27.48
2023-09-12T18:25:53.750Z,27.47
2023-09-12T18:29:00.098Z,27.43
2023-09-12T18:31:27.186Z,27.46
2023-09-12T18:33:54.379Z,27.49
2023-09-12T18:36:22.949Z,27.47
2023-09-12T18:38:53.220Z,27.49
2023-09-12T18:41:20.831Z,27.51
2023-09-12T18:43:47.788Z,27.53
2023-09-12T18:46:15.530Z,27.55
2023-09-12T18:48:42.676Z,27.56
2023-09-12T18:51:09.712Z,27.56
2023-09-12T18:53:37.208Z,27.56
2023-09-12T18:56:06.687Z,27.52
2023-09-12T18:58:33.963Z,27.33
2023-09-12T19:01:02.781Z,27.20
2023-09-12T19:03:31.743Z,27.10
2023-09-12T19:05:59.359Z,26.98
2023-09-12T19:08:26.662Z,26.89
2023-09-12T19:10:53.826Z,26.84
2023-09-12T19:13:20.788Z,26.78
2023-09-12T19:15:47.906Z,26.69
2023-09-12T19:18:14.984Z,26.65
2023-09-12T19:20:41.967Z,26.60
2023-09-12T19:23:09.473Z,26.56
2023-09-12T19:25:38.698Z,26.56
2023-09-12T19:28:09.054Z,26.58
2023-09-12T19:30:40.008Z,26.58
2023-09-12T19:33:09.730Z,26.58
2023-09-12T19:35:39.103Z,26.56
2023-09-12T19:38:06.280Z,26.52
2023-09-12T19:40:34.359Z,26.48
2023-09-12T19:43:01.781Z,26.41
2023-09-12T19:45:28.846Z,26.38
2023-09-12T19:48:01.321Z,26.33
2023-09-12T19:50:31.844Z,26.30
2023-09-12T19:52:58.769Z,26.22
2023-09-12T19:55:26.320Z,26.22
2023-09-12T19:57:53.799Z,26.19
2023-09-12T20:00:21.729Z,26.17
2023-09-12T20:02:50.045Z,26.12
2023-09-12T20:05:21.810Z,26.06
2023-09-12T20:07:50.975Z,26.06
2023-09-12T20:10:21.123Z,26.04
2023-09-12T20:12:49.451Z,26.03
2023-09-12T20:15:16.668Z,26.02
2023-09-12T20:17:47.174Z,26.02
2023-09-12T20:20:14.187Z,25.97
2023-09-12T20:22:41.145Z,26.01
2023-09-12T20:25:08.643Z,26.01
2023-09-12T20:27:35.719Z,26.00
2023-09-12T20:30:02.779Z,25.97
2023-09-12T20:32:35.256Z,25.96
2023-09-12T20:35:08.594Z,25.93
2023-09-12T20:37:35.645Z,25.89
2023-09-12T20:40:02.782Z,25.87
2023-09-12T20:42:29.853Z,25.83
2023-09-12T20:44:56.920Z,25.80
2023-09-12T20:47:24.329Z,25.74
2023-09-12T20:49:57.554Z,25.69
2023-09-12T20:52:24.874Z,25.63
2023-09-12T20:54:51.937Z,25.58
2023-09-12T20:57:19.402Z,25.51
2023-09-12T20:59:47.501Z,25.45
2023-09-12T21:02:15.120Z,25.38
2023-09-12T21:04:42.810Z,25.32
2023-09-12T21:07:09.839Z,25.24
2023-09-12T21:09:36.912Z,25.17
2023-09-12T21:12:05.680Z,25.10
2023-09-12T21:14:36.539Z,25.04
2023-09-12T21:17:03.649Z,24.98
2023-09-12T21:19:30.686Z,24.94
2023-09-12T21:21:59.179Z,24.89
2023-09-12T21:24:28.374Z,24.84
2023-09-12T21:26:55.401Z,24.78
2023-09-12T21:29:22.843Z,24.71
2023-09-12T21:31:55.829Z,24.66
2023-09-12T21:34:23.046Z,24.59
2023-09-12T21:36:50.052Z,24.54
2023-09-12T21:39:17.096Z,24.49
2023-09-12T21:41:44.044Z,24.43
2023-09-12T21:44:11.046Z,24.37
2023-09-12T21:46:38.218Z,24.34
2023-09-12T21:49:07.008Z,24.30
2023-09-12T21:51:34.843Z,24.24
2023-09-12T21:54:02.374Z,24.20
2023-09-12T21:56:29.614Z,24.15
2023-09-12T21:58:56.938Z,24.11
2023-09-12T22:01:23.986Z,24.07
2023-09-12T22:03:51.112Z,24.03
2023-09-12T22:06:19.184Z,23.99
2023-09-12T22:08:49.356Z,23.91
2023-09-12T22:11:16.383Z,23.85
2023-09-12T22:13:44.062Z,23.81
2023-09-12T22:16:11.369Z,23.76
2023-09-12T22:18:39.711Z,23.71
2023-09-12T22:21:09.956Z,23.65
2023-09-12T22:23:37.304Z,23.53
2023-09-12T22:26:14.368Z,23.51
2023-09-12T22:28:41.408Z,23.49
2023-09-12T22:31:12.560Z,23.42
2023-09-12T22:33:40.936Z,23.38
2023-09-12T22:36:18.951Z,23.33
2023-09-12T22:38:47.523Z,23.28
2023-09-12T22:41:14.809Z,23.24
2023-09-12T22:43:42.565Z,23.21
2023-09-12T22:46:09.961Z,23.15
2023-09-12T22:48:37.057Z,23.10
2023-09-12T22:51:04.122Z,23.07
2023-09-12T22:53:31.331Z,23.05
2023-09-12T22:55:58.320Z,23.04
2023-09-12T22:58:25.341Z,23.05
2023-09-12T23:00:52.398Z,23.05
2023-09-12T23:03:19.464Z,23.06
2023-09-12T23:05:46.448Z,23.05
2023-09-12T23:08:13.750Z,23.05
2023-09-12T23:10:40.752Z,23.03
2023-09-12T23:13:07.962Z,23.00
2023-09-12T23:15:36.853Z,22.99
2023-09-12T23:18:04.377Z,22.98
2023-09-12T23:20:34.051Z,22.95
2023-09-12T23:23:02.350Z,22.94
2023-09-12T23:25:29.317Z,22.91
2023-09-12T23:27:56.462Z,22.91
2023-09-12T23:30:26.858Z,22.87
2023-09-12T23:32:54.038Z,22.83
2023-09-12T23:35:21.576Z,22.80
2023-09-12T23:37:48.558Z,22.76
2023-09-12T23:40:16.126Z,22.71
2023-09-12T23:42:44.839Z,22.65
2023-09-12T23:45:13.260Z,22.61
2023-09-12T23:47:40.659Z,22.57
2023-09-12T23:50:09.292Z,22.52
2023-09-12T23:52:36.740Z,22.48
2023-09-12T23:55:03.949Z,22.44
2023-09-12T23:57:31.240Z,22.40
2023-09-12T23:59:58.212Z,22.37
